Time;durP1;ratioP1;P1;durP2;ratioP2;P2;SDS_P1;SDS_P2;PMS_P1;PMS_P2;Temp;Humidity;BMP_temperature;BMP_pressure;BME280_temperature;BME280_humidity;BME280_pressure;Samples;Min_cycle;Max_cycle;Signal;HPM_P1;HPM_P2
2022/07/04 00:01:58;;;;;;;1.77;1.00;;;23.20;99.90;;;;;;4156924;28;20754;-79
2022/07/04 00:04:02;;;;;;;2.83;1.20;;;23.20;99.90;;;;;;4153947;28;20221;-80
2022/07/04 00:06:04;;;;;;;2.60;1.20;;;23.20;99.90;;;;;;4162044;28;20672;-79
2022/07/04 00:08:06;;;;;;;2.47;1.10;;;23.20;99.90;;;;;;4155962;28;20636;-80
2022/07/04 00:10:10;;;;;;;2.15;1.40;;;23.20;99.90;;;;;;4148129;28;20318;-80
2022/07/04 00:12:12;;;;;;;1.35;1.00;;;23.20;99.90;;;;;;4159469;28;20553;-80
2022/07/04 00:14:15;;;;;;;2.72;1.20;;;23.20;99.90;;;;;;4151064;28;20920;-80
2022/07/04 00:16:17;;;;;;;4.78;1.40;;;23.20;99.90;;;;;;4148090;28;20720;-79
2022/07/04 00:18:19;;;;;;;1.30;1.00;;;23.20;99.90;;;;;;4155381;28;20275;-80
2022/07/04 00:20:23;;;;;;;2.58;1.30;;;23.20;99.90;;;;;;4156980;28;20278;-80
2022/07/04 00:22:25;;;;;;;2.88;1.30;;;23.20;99.90;;;;;;4151255;28;20622;-79
2022/07/04 00:24:28;;;;;;;3.72;1.38;;;23.20;99.90;;;;;;4157561;28;20637;-80
2022/07/04 00:26:30;;;;;;;2.75;1.30;;;23.20;99.90;;;;;;4162006;28;20236;-80
2022/07/04 00:28:32;;;;;;;2.75;1.33;;;23.20;99.90;;;;;;4149668;28;20221;-76
2022/07/04 00:30:35;;;;;;;4.55;1.58;;;23.20;99.90;;;;;;4150957;28;20225;-77
2022/07/04 00:32:37;;;;;;;2.25;1.27;;;23.20;99.90;;;;;;4148415;28;20635;-77
2022/07/04 00:34:39;;;;;;;2.05;1.40;;;23.20;99.90;;;;;;4144925;28;20635;-76
2022/07/04 00:36:43;;;;;;;2.58;1.40;;;23.20;99.90;;;;;;4155163;28;20216;-77
2022/07/04 00:38:45;;;;;;;4.03;1.42;;;23.20;99.90;;;;;;4149359;28;20272;-77
2022/07/04 00:40:47;;;;;;;2.53;1.40;;;23.10;99.90;;;;;;4157816;28;20220;-77
2022/07/04 00:42:50;;;;;;;2.97;1.42;;;23.20;99.90;;;;;;4163922;28;20872;-77
2022/07/04 00:44:52;;;;;;;3.67;1.42;;;23.10;99.90;;;;;;4161939;28;20258;-77
2022/07/04 00:46:54;;;;;;;2.85;1.35;;;23.20;99.90;;;;;;4156607;28;20271;-77
2022/07/04 00:48:57;;;;;;;3.90;1.23;;;23.10;99.90;;;;;;4152906;28;20317;-77
2022/07/04 00:51:00;;;;;;;2.42;1.30;;;23.10;99.90;;;;;;4150910;28;20297;-77
2022/07/04 00:53:03;;;;;;;2.72;1.13;;;23.10;99.90;;;;;;4155005;28;20313;-77
2022/07/04 00:55:07;;;;;;;2.40;1.30;;;23.10;99.90;;;;;;4148511;28;20217;-77
2022/07/04 00:57:10;;;;;;;2.58;1.27;;;23.10;99.90;;;;;;4162895;28;20637;-77
2022/07/04 00:59:13;;;;;;;3.28;1.60;;;23.10;99.90;;;;;;4156258;28;20543;-77
2022/07/04 01:01:15;;;;;;;2.15;1.27;;;23.10;99.90;;;;;;4150995;28;20665;-77
2022/07/04 01:03:18;;;;;;;1.80;0.95;;;23.10;99.90;;;;;;4149130;28;20648;-76
2022/07/04 01:05:20;;;;;;;3.50;1.42;;;23.10;99.90;;;;;;4164328;28;20362;-76
2022/07/04 01:07:23;;;;;;;2.72;1.17;;;23.10;99.90;;;;;;4156032;28;20551;-77
2022/07/04 01:09:26;;;;;;;1.90;1.05;;;23.10;99.90;;;;;;4153072;28;20244;-77
2022/07/04 01:11:29;;;;;;;4.07;1.38;;;23.10;99.90;;;;;;4162442;28;20220;-77
2022/07/04 01:13:31;;;;;;;1.55;1.13;;;23.00;99.90;;;;;;4160547;28;20225;-76
2022/07/04 01:15:33;;;;;;;2.20;1.20;;;23.00;99.90;;;;;;4163343;28;20213;-77
2022/07/04 01:17:36;;;;;;;2.50;1.30;;;23.00;99.90;;;;;;4154685;28;20306;-76
2022/07/04 01:19:38;;;;;;;1.60;1.13;;;23.00;99.90;;;;;;4148141;28;20728;-76
2022/07/04 01:21:42;;;;;;;2.17;1.30;;;23.00;99.90;;;;;;4151013;28;20266;-77
2022/07/04 01:23:45;;;;;;;2.15;1.27;;;23.10;99.90;;;;;;4158545;28;20259;-77
2022/07/04 01:25:48;;;;;;;2.33;1.20;;;23.00;99.90;;;;;;4155491;28;20276;-76
2022/07/04 01:27:50;;;;;;;2.75;1.20;;;23.00;99.90;;;;;;4154865;28;20589;-77
2022/07/04 01:29:53;;;;;;;3.63;1.50;;;23.00;99.90;;;;;;4162067;28;20311;-77
2022/07/04 01:31:55;;;;;;;2.60;1.05;;;23.00;99.90;;;;;;4163489;28;20369;-77
2022/07/04 01:33:57;;;;;;;3.00;1.50;;;23.00;99.90;;;;;;4162922;28;20216;-77
2022/07/04 01:36:00;;;;;;;1.80;0.98;;;23.00;99.90;;;;;;4149152;28;20217;-76
2022/07/04 01:38:04;;;;;;;2.75;1.40;;;23.00;99.90;;;;;;4153569;28;20271;-77
2022/07/04 01:40:07;;;;;;;3.38;1.25;;;23.00;99.90;;;;;;4159860;28;20225;-77
2022/07/04 01:42:10;;;;;;;5.35;1.60;;;23.00;99.90;;;;;;4153860;28;20217;-77
2022/07/04 01:44:12;;;;;;;2.08;1.10;;;23.00;99.90;;;;;;4150633;28;20674;-77
2022/07/04 01:46:14;;;;;;;2.35;1.00;;;23.00;99.90;;;;;;4147689;28;20624;-77
2022/07/04 01:48:17;;;;;;;1.98;1.08;;;23.00;99.90;;;;;;4155451;28;20212;-76
2022/07/04 01:50:19;;;;;;;2.75;1.38;;;23.00;99.90;;;;;;4161180;28;20683;-77
2022/07/04 01:52:22;;;;;;;3.33;1.45;;;23.00;99.90;;;;;;4150353;28;20295;-77
2022/07/04 01:54:27;;;;;;;1.88;1.23;;;23.00;99.90;;;;;;4147879;28;20616;-77
2022/07/04 01:56:29;;;;;;;2.58;1.40;;;23.00;99.90;;;;;;4157032;28;20266;-77
2022/07/04 01:58:32;;;;;;;3.42;1.23;;;23.00;99.90;;;;;;4153155;28;20333;-76
2022/07/04 02:02:54;;;;;;;2.55;1.30;;;23.00;99.90;;;;;;4162845;28;20189;-77
2022/07/04 02:04:56;;;;;;;2.08;1.23;;;22.90;99.90;;;;;;4157190;28;20266;-77
2022/07/04 02:07:01;;;;;;;2.70;1.30;;;22.90;99.90;;;;;;4157994;28;20217;-77
2022/07/04 02:09:16;;;;;;;2.35;1.20;;;23.00;99.90;;;;;;4155026;28;20311;-76
2022/07/04 02:11:20;;;;;;;1.50;1.30;;;22.90;99.90;;;;;;4158237;28;20228;-77
2022/07/04 02:13:21;;;;;;;2.28;1.38;;;22.90;99.90;;;;;;4161679;28;20298;-76
2022/07/04 02:15:24;;;;;;;1.48;0.98;;;23.00;99.90;;;;;;4159119;28;20632;-77
2022/07/04 02:17:26;;;;;;;2.13;1.20;;;22.90;99.90;;;;;;4152526;28;20224;-77
2022/07/04 02:19:29;;;;;;;2.35;1.23;;;22.90;99.90;;;;;;4152573;28;20224;-76
2022/07/04 02:21:32;;;;;;;2.05;1.10;;;22.90;99.90;;;;;;4146566;28;20287;-77
2022/07/04 02:23:34;;;;;;;2.83;1.30;;;22.90;99.90;;;;;;4161361;28;20204;-76
2022/07/04 02:25:36;;;;;;;3.42;1.63;;;22.90;99.90;;;;;;4156281;28;20220;-76
2022/07/04 02:27:40;;;;;;;1.67;1.30;;;22.90;99.90;;;;;;4153540;28;20653;-76
2022/07/04 02:29:42;;;;;;;1.98;1.08;;;22.90;99.90;;;;;;4146813;28;20363;-76
2022/07/04 02:31:45;;;;;;;3.78;1.33;;;22.90;99.90;;;;;;4150623;28;20259;-76
2022/07/04 02:33:47;;;;;;;1.77;1.20;;;22.90;99.90;;;;;;4151827;28;20274;-77
2022/07/04 02:35:49;;;;;;;2.67;1.23;;;22.90;99.90;;;;;;4151613;28;20239;-77
2022/07/04 02:37:52;;;;;;;3.00;1.13;;;22.90;99.90;;;;;;4148789;28;20217;-77
2022/07/04 02:39:54;;;;;;;3.35;1.20;;;22.90;99.90;;;;;;4150714;28;20212;-77
2022/07/04 02:41:56;;;;;;;2.55;1.15;;;22.90;99.90;;;;;;4154378;28;20310;-77
2022/07/04 02:44:00;;;;;;;2.38;1.05;;;22.90;99.90;;;;;;4148684;28;20283;-77
2022/07/04 02:46:02;;;;;;;2.72;1.17;;;22.90;99.90;;;;;;4152486;28;20269;-77
2022/07/04 02:48:05;;;;;;;2.85;1.30;;;22.90;99.90;;;;;;4153901;28;20298;-77
2022/07/04 02:50:08;;;;;;;2.03;1.20;;;22.90;99.90;;;;;;4155198;28;20673;-77
2022/07/04 02:52:10;;;;;;;3.70;1.35;;;22.80;99.90;;;;;;4149527;28;20724;-76
2022/07/04 02:54:12;;;;;;;1.70;1.02;;;22.90;99.90;;;;;;4152237;28;20220;-77
2022/07/04 02:56:15;;;;;;;2.90;1.05;;;22.90;99.90;;;;;;4157718;28;20639;-77
2022/07/04 02:58:17;;;;;;;2.15;1.20;;;22.80;99.90;;;;;;4154292;28;20306;-77
2022/07/04 03:00:21;;;;;;;2.60;1.20;;;22.80;99.90;;;;;;4152720;28;20271;-77
2022/07/04 03:02:23;;;;;;;1.70;1.05;;;22.80;99.90;;;;;;4154040;28;20213;-77
2022/07/04 03:04:26;;;;;;;1.20;1.10;;;22.80;99.90;;;;;;4154851;28;20259;-77
2022/07/04 03:06:28;;;;;;;2.35;1.17;;;22.90;99.90;;;;;;4155616;28;20220;-77
2022/07/04 03:08:30;;;;;;;3.17;1.20;;;22.80;99.90;;;;;;4151395;28;20220;-77
2022/07/04 03:10:32;;;;;;;2.88;1.40;;;22.80;99.90;;;;;;4148102;28;20267;-77
2022/07/04 03:12:35;;;;;;;2.03;1.20;;;22.80;99.90;;;;;;4156365;28;20216;-77
2022/07/04 03:14:37;;;;;;;2.80;1.30;;;22.80;99.90;;;;;;4160030;28;20217;-77
2022/07/04 03:16:40;;;;;;;2.00;1.20;;;22.80;99.90;;;;;;4152152;28;20225;-77
2022/07/04 03:18:43;;;;;;;2.55;1.25;;;22.80;99.90;;;;;;4149135;28;20217;-77
2022/07/04 03:20:45;;;;;;;2.72;1.25;;;22.80;99.90;;;;;;4145832;28;20270;-76
2022/07/04 03:22:47;;;;;;;1.98;0.90;;;22.80;99.90;;;;;;4152974;28;20205;-77
2022/07/04 03:24:50;;;;;;;1.75;1.20;;;22.80;99.90;;;;;;4153392;28;20275;-77
2022/07/04 03:26:52;;;;;;;2.67;1.40;;;22.80;99.90;;;;;;4149545;28;20225;-77
2022/07/04 03:28:54;;;;;;;2.50;1.20;;;22.80;99.90;;;;;;4145680;28;20316;-77
2022/07/04 03:30:57;;;;;;;2.72;1.15;;;22.80;99.90;;;;;;4156702;28;20220;-76
2022/07/04 03:33:00;;;;;;;1.77;1.10;;;22.80;99.90;;;;;;4150942;28;20283;-77
2022/07/04 03:35:03;;;;;;;1.85;1.00;;;22.80;99.90;;;;;;4150981;28;20220;-77
2022/07/04 03:37:05;;;;;;;2.47;1.35;;;22.80;99.90;;;;;;4148368;28;20271;-76
2022/07/04 03:39:08;;;;;;;2.35;1.10;;;22.80;99.90;;;;;;4157639;28;20350;-76
2022/07/04 03:41:10;;;;;;;2.97;1.42;;;22.80;99.90;;;;;;4160812;28;20220;-76
2022/07/04 03:43:13;;;;;;;4.25;1.10;;;22.80;99.90;;;;;;4156728;28;20213;-77
2022/07/04 03:45:15;;;;;;;1.63;1.10;;;22.70;99.90;;;;;;4153550;28;20627;-77
2022/07/04 03:47:17;;;;;;;1.90;1.05;;;22.80;99.90;;;;;;4153128;28;20661;-77
2022/07/04 03:49:21;;;;;;;1.20;1.02;;;22.80;99.90;;;;;;4148242;28;20661;-77
2022/07/04 03:51:23;;;;;;;4.72;1.00;;;22.70;99.90;;;;;;4158876;28;20216;-77
2022/07/04 03:53:26;;;;;;;2.80;1.25;;;22.70;99.90;;;;;;4155016;28;20240;-77
2022/07/04 03:55:28;;;;;;;2.45;1.42;;;22.80;99.90;;;;;;4152122;28;20661;-77
2022/07/04 03:57:30;;;;;;;1.77;0.82;;;22.80;99.90;;;;;;4147122;28;20295;-77
2022/07/04 03:59:33;;;;;;;2.35;1.20;;;22.80;99.90;;;;;;4147449;28;20369;-77
2022/07/04 04:01:35;;;;;;;2.72;1.10;;;22.70;99.90;;;;;;4155439;28;20262;-77
2022/07/04 04:05:58;;;;;;;2.13;1.25;;;22.80;99.90;;;;;;4145466;28;20204;-77
2022/07/04 04:08:02;;;;;;;1.98;1.17;;;22.80;99.90;;;;;;4153530;28;20327;-77
2022/07/04 04:10:05;;;;;;;2.30;1.35;;;22.70;99.90;;;;;;4156509;28;20307;-77
2022/07/04 04:12:08;;;;;;;1.23;0.85;;;22.70;99.90;;;;;;4147834;28;20268;-77
2022/07/04 04:14:11;;;;;;;1.73;1.20;;;22.70;99.90;;;;;;4147844;28;20764;-77
2022/07/04 04:16:13;;;;;;;3.50;1.30;;;22.70;99.90;;;;;;4155546;28;20265;-77
2022/07/04 04:18:16;;;;;;;1.73;1.08;;;22.70;99.90;;;;;;4158871;28;20646;-77
2022/07/04 04:20:18;;;;;;;2.30;1.20;;;22.70;99.90;;;;;;4156449;28;20646;-77
2022/07/04 04:22:22;;;;;;;3.15;1.20;;;22.70;99.90;;;;;;4156207;28;20224;-77
2022/07/04 04:24:24;;;;;;;2.53;1.30;;;22.70;99.90;;;;;;4148679;28;20623;-77
2022/07/04 04:26:26;;;;;;;1.80;1.05;;;22.70;99.90;;;;;;4158199;28;20216;-77
2022/07/04 04:28:28;;;;;;;3.00;1.30;;;22.70;99.90;;;;;;4156307;28;20300;-77
2022/07/04 04:30:31;;;;;;;1.77;0.90;;;22.70;99.90;;;;;;4152696;28;20213;-77
2022/07/04 04:32:33;;;;;;;3.15;1.23;;;22.70;99.90;;;;;;4149466;28;20275;-77
2022/07/04 04:34:35;;;;;;;2.95;1.23;;;22.70;99.90;;;;;;4159149;28;20286;-77
2022/07/04 04:36:38;;;;;;;2.28;1.15;;;22.70;99.90;;;;;;4157285;28;20286;-77
2022/07/04 04:38:41;;;;;;;1.30;1.20;;;22.70;99.90;;;;;;4159123;28;20721;-77
2022/07/04 04:40:44;;;;;;;1.38;0.93;;;22.70;99.90;;;;;;4162211;28;20270;-77
2022/07/04 04:42:46;;;;;;;1.52;1.02;;;22.70;99.90;;;;;;4163997;28;20212;-77
2022/07/04 04:44:48;;;;;;;1.95;1.10;;;22.70;99.90;;;;;;4161754;28;20553;-77
2022/07/04 04:46:51;;;;;;;3.15;1.13;;;22.70;99.90;;;;;;4154940;28;20271;-77
2022/07/04 04:48:53;;;;;;;3.13;1.00;;;22.70;99.90;;;;;;4150685;28;20665;-77
2022/07/04 04:50:55;;;;;;;1.92;1.17;;;22.70;99.90;;;;;;4162866;28;20295;-77
2022/07/04 04:52:58;;;;;;;2.60;1.13;;;22.70;99.90;;;;;;4161270;28;20216;-77
2022/07/04 04:55:02;;;;;;;3.40;1.30;;;22.70;99.90;;;;;;4155498;28;20244;-77
2022/07/04 04:57:04;;;;;;;2.58;0.98;;;22.70;99.90;;;;;;4153733;28;20272;-77
2022/07/04 04:59:07;;;;;;;2.83;1.20;;;22.70;99.90;;;;;;4149874;28;20624;-77
2022/07/04 05:01:09;;;;;;;2.78;1.10;;;22.70;99.90;;;;;;4159747;28;20512;-77
2022/07/04 05:03:12;;;;;;;1.38;0.88;;;22.70;99.90;;;;;;4157091;28;20225;-77
2022/07/04 05:05:14;;;;;;;2.08;1.00;;;22.70;99.90;;;;;;4150128;28;20553;-77
2022/07/04 05:07:17;;;;;;;2.83;1.10;;;22.70;99.90;;;;;;4150852;28;20696;-76
2022/07/04 05:09:19;;;;;;;2.13;1.35;;;22.70;99.90;;;;;;4163183;28;20232;-77
2022/07/04 05:11:23;;;;;;;1.33;1.05;;;22.70;99.90;;;;;;4159334;28;20267;-77
2022/07/04 05:13:25;;;;;;;1.83;1.30;;;22.70;99.90;;;;;;4163678;28;20282;-77
2022/07/04 05:15:27;;;;;;;1.80;1.27;;;22.70;99.90;;;;;;4163757;28;20290;-77
2022/07/04 05:17:29;;;;;;;2.38;1.48;;;22.70;99.90;;;;;;4149693;28;20279;-77
2022/07/04 05:19:32;;;;;;;2.00;1.15;;;22.70;99.90;;;;;;4153082;28;20220;-77
2022/07/04 05:21:34;;;;;;;2.45;1.17;;;22.70;99.90;;;;;;4153143;28;20282;-77
2022/07/04 05:23:36;;;;;;;2.47;1.20;;;22.70;99.90;;;;;;4154640;28;20312;-77
2022/07/04 05:25:39;;;;;;;1.67;1.10;;;22.70;99.90;;;;;;4163761;28;20262;-77
2022/07/04 05:27:42;;;;;;;2.45;1.30;;;22.70;99.90;;;;;;4159980;28;20238;-77
2022/07/04 05:29:44;;;;;;;2.22;1.35;;;22.70;99.90;;;;;;4161668;28;20723;-77
2022/07/04 05:31:47;;;;;;;2.83;1.27;;;22.70;99.90;;;;;;4154799;28;20213;-77
2022/07/04 05:33:49;;;;;;;2.25;1.30;;;22.70;99.90;;;;;;4148280;28;20217;-77
2022/07/04 05:35:52;;;;;;;2.50;1.20;;;22.70;99.90;;;;;;4152824;28;20288;-77
2022/07/04 05:37:54;;;;;;;2.50;1.20;;;22.70;99.90;;;;;;4158757;28;20208;-77
2022/07/04 05:39:56;;;;;;;2.42;1.15;;;22.70;99.90;;;;;;4155836;28;20267;-77
2022/07/04 05:41:59;;;;;;;1.63;1.10;;;22.70;99.90;;;;;;4159693;28;20217;-77
2022/07/04 05:44:02;;;;;;;2.25;1.20;;;22.70;99.90;;;;;;4153509;28;20653;-77
2022/07/04 05:46:04;;;;;;;3.72;1.20;;;22.70;99.90;;;;;;4152474;28;20606;-77
2022/07/04 05:48:07;;;;;;;3.00;1.30;;;22.80;99.90;;;;;;4160752;28;20224;-77
2022/07/04 05:50:10;;;;;;;3.63;1.20;;;22.70;99.90;;;;;;4150125;28;20282;-77
2022/07/04 05:52:12;;;;;;;1.50;1.00;;;22.70;99.90;;;;;;4147298;28;20217;-77
2022/07/04 05:54:14;;;;;;;1.95;1.10;;;22.70;99.90;;;;;;4147920;28;20578;-77
2022/07/04 05:56:17;;;;;;;2.20;1.10;;;22.70;99.90;;;;;;4160575;28;20294;-76
2022/07/04 05:58:19;;;;;;;2.20;1.10;;;22.70;99.90;;;;;;4155695;28;20270;-77
2022/07/04 06:00:26;;;;;;;2.20;1.10;;;22.70;99.90;;;;;;4154813;28;20492;-76
2022/07/04 06:02:28;;;;;;;1.83;0.90;;;22.70;99.90;;;;;;4150685;28;20351;-77
2022/07/04 06:04:30;;;;;;;1.40;0.90;;;22.70;99.90;;;;;;4158208;28;20274;-76
2022/07/04 06:06:33;;;;;;;2.28;1.10;;;22.70;99.90;;;;;;4157841;28;20216;-77
2022/07/04 06:08:35;;;;;;;2.25;1.50;;;22.80;99.90;;;;;;4157472;28;20278;-77
2022/07/04 06:10:37;;;;;;;2.30;1.10;;;22.70;99.90;;;;;;4155895;28;20217;-77
2022/07/04 06:12:40;;;;;;;2.10;1.17;;;22.70;99.90;;;;;;4147929;28;20217;-76
2022/07/04 06:14:43;;;;;;;1.60;0.90;;;22.70;99.90;;;;;;4158106;28;20236;-77
2022/07/04 06:16:47;;;;;;;2.70;1.17;;;22.70;99.90;;;;;;4155321;28;20210;-77
2022/07/04 06:18:49;;;;;;;3.35;1.20;;;22.70;99.90;;;;;;4152344;28;20217;-76
2022/07/04 06:20:52;;;;;;;2.92;1.38;;;22.80;99.90;;;;;;4157941;28;20216;-77
2022/07/04 06:22:54;;;;;;;3.28;1.27;;;22.70;99.90;;;;;;4161135;28;20516;-77
2022/07/04 06:24:56;;;;;;;2.45;1.20;;;22.80;99.90;;;;;;4152078;28;20213;-77
2022/07/04 06:26:58;;;;;;;2.55;1.30;;;22.80;99.90;;;;;;4152386;28;20213;-77
2022/07/04 06:29:01;;;;;;;3.17;1.20;;;22.80;99.90;;;;;;4149648;28;20232;-77
2022/07/04 06:31:03;;;;;;;1.52;0.93;;;22.80;99.90;;;;;;4147009;28;20299;-77
2022/07/04 06:33:07;;;;;;;2.85;1.15;;;22.80;99.90;;;;;;4157034;28;20275;-76
2022/07/04 06:37:29;;;;;;;2.33;0.98;;;22.70;99.90;;;;;;4154499;28;20975;-77
2022/07/04 06:39:31;;;;;;;2.60;1.13;;;22.80;99.90;;;;;;4155922;28;20213;-77
2022/07/04 06:41:33;;;;;;;2.08;0.95;;;22.80;99.90;;;;;;4158089;28;20212;-77
2022/07/04 06:43:36;;;;;;;3.45;1.10;;;22.80;99.90;;;;;;4153796;28;20216;-77
2022/07/04 06:45:38;;;;;;;2.75;1.20;;;22.70;99.90;;;;;;4159498;28;20259;-77
2022/07/04 06:47:41;;;;;;;3.92;1.05;;;22.80;99.90;;;;;;4146399;28;20217;-77
2022/07/04 06:49:44;;;;;;;2.33;1.10;;;22.80;99.90;;;;;;4153340;28;20224;-76
2022/07/04 06:51:47;;;;;;;3.08;1.15;;;22.80;99.90;;;;;;4156607;28;20216;-77
2022/07/04 06:53:49;;;;;;;2.70;1.20;;;22.80;99.90;;;;;;4152782;28;20278;-77
2022/07/04 06:55:51;;;;;;;2.10;1.13;;;22.80;99.90;;;;;;4146905;28;20291;-77
2022/07/04 06:57:54;;;;;;;2.13;1.15;;;22.80;99.90;;;;;;4153357;28;20266;-76
2022/07/04 06:59:56;;;;;;;2.00;0.93;;;22.80;99.90;;;;;;4156395;28;20304;-77
2022/07/04 07:01:58;;;;;;;1.63;0.90;;;22.80;99.90;;;;;;4161125;28;20314;-77
2022/07/04 07:04:00;;;;;;;5.75;1.13;;;22.80;99.90;;;;;;4150737;28;20217;-77
2022/07/04 07:06:04;;;;;;;3.90;1.20;;;22.70;99.90;;;;;;4152173;28;20276;-79
2022/07/04 07:08:07;;;;;;;4.90;1.60;;;22.70;99.90;;;;;;4153302;28;20220;-77
2022/07/04 07:10:10;;;;;;;7.97;1.63;;;22.60;99.90;;;;;;4152053;28;20282;-79
2022/07/04 07:12:14;;;;;;;4.35;1.48;;;22.40;99.90;;;;;;4143525;28;20665;-79
2022/07/04 07:14:18;;;;;;;7.80;2.08;;;22.30;99.90;;;;;;4149692;28;20213;-76
2022/07/04 07:16:20;;;;;;;7.50;1.63;;;22.20;99.90;;;;;;4149225;28;20287;-79
2022/07/04 07:18:22;;;;;;;5.40;1.63;;;22.10;99.90;;;;;;4151453;28;20267;-77
2022/07/04 07:20:25;;;;;;;15.23;1.92;;;22.00;99.90;;;;;;4147651;28;20216;-75
2022/07/04 07:22:28;;;;;;;11.65;1.80;;;22.00;99.90;;;;;;4149565;28;20217;-80
2022/07/04 07:24:31;;;;;;;6.38;1.90;;;22.00;99.90;;;;;;4147381;28;20280;-78
2022/07/04 07:26:33;;;;;;;9.02;1.92;;;22.10;99.90;;;;;;4151636;28;20354;-78
2022/07/04 07:28:35;;;;;;;6.90;1.75;;;22.10;99.90;;;;;;4148952;28;20224;-79
2022/07/04 07:30:37;;;;;;;7.43;1.98;;;22.00;99.90;;;;;;4150736;28;20208;-79
2022/07/04 07:32:40;;;;;;;8.55;2.10;;;22.00;99.90;;;;;;4146169;28;20271;-78
2022/07/04 07:34:42;;;;;;;5.63;1.40;;;22.10;99.90;;;;;;4146390;28;20697;-81
2022/07/04 07:36:44;;;;;;;8.38;1.63;;;22.10;99.90;;;;;;4149657;28;20645;-80
2022/07/04 07:38:48;;;;;;;10.65;2.05;;;22.20;99.90;;;;;;4143006;28;20224;-79
2022/07/04 07:40:52;;;;;;;6.63;1.77;;;22.30;99.90;;;;;;4153659;28;20216;-84
2022/07/04 07:42:55;;;;;;;6.05;1.83;;;22.30;99.90;;;;;;4151236;28;20638;-77
2022/07/04 07:44:57;;;;;;;8.32;2.03;;;22.40;99.90;;;;;;4145030;28;20247;-76
2022/07/04 07:46:59;;;;;;;7.30;2.20;;;22.20;99.90;;;;;;4152603;28;20216;-77
2022/07/04 07:49:02;;;;;;;7.60;2.10;;;22.30;99.90;;;;;;4150840;28;20229;-78
2022/07/04 07:51:05;;;;;;;7.03;1.90;;;22.30;99.90;;;;;;4152026;28;20224;-78
2022/07/04 07:53:08;;;;;;;8.52;1.88;;;22.30;99.90;;;;;;4158203;28;20216;-79
2022/07/04 07:55:12;;;;;;;6.88;2.28;;;22.20;99.90;;;;;;4152887;28;20216;-80
2022/07/04 07:57:14;;;;;;;11.32;2.10;;;22.20;99.90;;;;;;4149777;28;20224;-79
2022/07/04 07:59:17;;;;;;;6.53;1.83;;;22.30;99.90;;;;;;4155741;28;21858;-79
2022/07/04 08:01:20;;;;;;;5.63;1.67;;;22.30;99.90;;;;;;4153764;28;20220;-80
2022/07/04 08:05:42;;;;;;;6.68;1.70;;;22.40;99.90;;;;;;4159979;28;20204;-82
2022/07/04 08:07:44;;;;;;;8.15;1.80;;;22.40;99.90;;;;;;4159746;28;20269;-82
2022/07/04 08:09:47;;;;;;;6.90;1.58;;;22.40;99.90;;;;;;4156465;28;20232;-80
2022/07/04 08:11:50;;;;;;;6.80;1.85;;;22.50;99.90;;;;;;4159449;28;20212;-79
2022/07/04 08:13:53;;;;;;;5.03;1.75;;;22.50;99.90;;;;;;4156641;28;20212;-79
2022/07/04 08:15:55;;;;;;;8.52;1.80;;;22.50;99.90;;;;;;4155912;28;20245;-80
2022/07/04 08:17:58;;;;;;;5.57;1.77;;;22.50;99.90;;;;;;4161098;28;20258;-79
2022/07/04 08:20:00;;;;;;;4.25;1.65;;;22.40;99.90;;;;;;4157709;28;20216;-79
2022/07/04 08:22:03;;;;;;;8.52;1.63;;;22.50;99.90;;;;;;4155966;28;20221;-79
2022/07/04 08:24:06;;;;;;;9.32;1.80;;;22.50;99.90;;;;;;4154823;28;20225;-78
2022/07/04 08:26:08;;;;;;;13.00;1.77;;;22.50;99.90;;;;;;4152397;28;20628;-78
2022/07/04 08:28:12;;;;;;;27.88;2.80;;;22.50;99.90;;;;;;4155373;28;20213;-81
2022/07/04 08:30:14;;;;;;;8.57;1.67;;;22.50;99.90;;;;;;4159334;28;20212;-79
2022/07/04 08:32:16;;;;;;;10.75;1.70;;;22.50;99.90;;;;;;4160205;28;20221;-80
2022/07/04 08:34:19;;;;;;;4.45;1.30;;;22.50;99.90;;;;;;4157801;28;20274;-77
2022/07/04 08:36:21;;;;;;;6.75;1.48;;;22.50;99.90;;;;;;4158325;28;20240;-78
2022/07/04 08:38:23;;;;;;;6.90;1.48;;;22.50;99.90;;;;;;4156145;28;20717;-79
2022/07/04 08:40:27;;;;;;;5.43;1.20;;;22.50;99.90;;;;;;4160685;28;20258;-80
2022/07/04 08:42:35;;;;;;;8.45;1.40;;;22.60;99.90;;;;;;4154574;28;20220;-79
2022/07/04 08:44:41;;;;;;;4.68;1.27;;;22.60;99.90;;;;;;4154521;28;20215;-81
2022/07/04 08:46:43;;;;;;;4.53;1.10;;;22.60;99.90;;;;;;4160756;28;20213;-81
2022/07/04 08:48:52;;;;;;;3.67;1.27;;;22.60;99.90;;;;;;4152260;28;20220;-80
2022/07/04 08:50:58;;;;;;;6.00;1.20;;;22.70;99.90;;;;;;4159104;28;20668;-81
2022/07/04 08:53:03;;;;;;;4.50;1.30;;;22.80;99.90;;;;;;4150422;28;20209;-85
2022/07/04 08:59:48;;;;;;;10.85;1.58;;;22.70;99.90;;;;;;4155246;28;20595;-82
2022/07/04 09:01:51;;;;;;;5.55;1.48;;;22.60;99.90;;;;;;4159564;28;20653;-80
2022/07/04 09:03:54;;;;;;;10.90;1.67;;;22.60;99.90;;;;;;4156911;28;20596;-81
2022/07/04 09:05:57;;;;;;;8.68;1.60;;;22.70;99.90;;;;;;4153628;28;20693;-85
2022/07/04 09:08:00;;;;;;;5.13;1.50;;;22.80;99.90;;;;;;4152145;28;20246;-87
2022/07/04 09:10:04;;;;;;;4.88;1.27;;;22.90;99.90;;;;;;4150498;28;20790;-86
2022/07/04 09:12:07;;;;;;;4.88;1.58;;;22.90;99.90;;;;;;4153478;28;20216;-84
2022/07/04 09:14:10;;;;;;;4.75;1.40;;;22.90;99.90;;;;;;4159946;28;20216;-80
2022/07/04 09:16:14;;;;;;;3.92;1.38;;;23.00;99.90;;;;;;4158346;28;20386;-78
2022/07/04 09:18:25;;;;;;;5.25;1.33;;;23.00;99.90;;;;;;4154804;28;20228;-81
2022/07/04 09:20:29;;;;;;;6.40;1.20;;;22.90;99.90;;;;;;4155100;28;20726;-80
2022/07/04 09:22:31;;;;;;;5.45;1.38;;;23.00;99.90;;;;;;4156196;28;20565;-78
2022/07/04 09:24:47;;;;;;;5.00;1.35;;;23.00;99.90;;;;;;4155587;28;21645;-80
2022/07/04 09:26:49;;;;;;;3.05;1.23;;;23.00;99.90;;;;;;4159450;28;20209;-82
2022/07/04 09:28:53;;;;;;;3.88;1.30;;;23.10;99.90;;;;;;4155653;28;20220;-84
2022/07/04 09:30:55;;;;;;;3.72;1.10;;;23.00;99.90;;;;;;4154933;28;20295;-77
2022/07/04 09:33:00;;;;;;;5.95;1.20;;;23.10;99.90;;;;;;4154552;28;20255;-76
2022/07/04 09:35:03;;;;;;;3.10;1.35;;;23.20;99.90;;;;;;4155530;28;20726;-83
2022/07/04 09:37:06;;;;;;;5.25;1.30;;;23.40;99.90;;;;;;4161860;28;20244;-80
2022/07/04 09:39:12;;;;;;;8.98;1.65;;;23.50;99.90;;;;;;4154064;28;20213;-79
2022/07/04 09:43:33;;;;;;;7.25;1.52;;;23.70;99.90;;;;;;4149426;28;20291;-75
2022/07/04 09:45:35;;;;;;;3.10;1.10;;;23.80;99.90;;;;;;4152568;28;20217;-76
2022/07/04 09:47:39;;;;;;;5.60;1.27;;;23.80;99.90;;;;;;4148029;28;20267;-74
2022/07/04 09:49:59;;;;;;;2.95;1.35;;;23.80;99.90;;;;;;4151658;28;20213;-74
2022/07/04 09:55:02;;;;;;;4.75;1.15;;;23.90;99.90;;;;;;4154155;28;20169;-74
2022/07/04 09:57:14;;;;;;;7.22;1.40;;;23.90;99.90;;;;;;4154158;28;20301;-74
2022/07/04 09:59:24;;;;;;;4.93;1.20;;;23.90;99.90;;;;;;4154052;28;20251;-77
2022/07/04 10:01:33;;;;;;;9.25;1.70;;;24.00;99.90;;;;;;4152967;28;20227;-76
2022/07/04 10:03:42;;;;;;;4.57;1.20;;;23.80;99.90;;;;;;4148059;28;20715;-78
2022/07/04 10:06:10;;;;;;;7.53;1.65;;;23.70;99.90;;;;;;4151296;28;20209;-76
2022/07/04 10:08:31;;;;;;;4.35;1.48;;;23.50;99.90;;;;;;4154094;28;20216;-74
2022/07/04 11:11:50;;;;;;;3.28;1.10;;;23.90;99.90;;;;;;4129905;28;20771;-77
2022/07/04 11:14:26;;;;;;;3.47;1.33;;;23.90;99.90;;;;;;4144690;28;20669;-78
2022/07/04 11:16:52;;;;;;;2.85;1.00;;;23.90;99.90;;;;;;4141386;28;20208;-78
2022/07/04 11:18:55;;;;;;;3.95;1.10;;;24.00;99.90;;;;;;4146204;28;20641;-78
2022/07/04 11:21:00;;;;;;;2.70;0.90;;;24.00;99.90;;;;;;4146108;28;20271;-78
2022/07/04 11:23:06;;;;;;;3.33;1.20;;;24.00;99.90;;;;;;4147106;28;20267;-78
2022/07/04 11:25:11;;;;;;;2.20;1.00;;;23.90;99.90;;;;;;4146066;28;20216;-77
2022/07/04 11:27:15;;;;;;;2.63;1.10;;;24.00;99.90;;;;;;4143647;28;20218;-77
2022/07/04 11:29:18;;;;;;;2.72;1.10;;;24.00;99.90;;;;;;4144317;28;20225;-77
2022/07/04 11:31:20;;;;;;;2.95;1.00;;;23.90;99.90;;;;;;4146525;28;20224;-77
2022/07/04 11:33:25;;;;;;;2.15;0.90;;;24.00;99.90;;;;;;4146030;28;20217;-77
2022/07/04 11:35:27;;;;;;;2.05;0.90;;;24.00;99.90;;;;;;4146612;28;20267;-77
2022/07/04 11:37:30;;;;;;;2.65;1.15;;;24.00;99.90;;;;;;4146168;28;20318;-77
2022/07/04 11:39:32;;;;;;;2.03;1.20;;;24.00;99.90;;;;;;4146382;28;20221;-77
2022/07/04 11:46:18;;;;;;;1.73;0.80;;;24.10;99.90;;;;;;4146163;28;20209;-77
2022/07/04 11:48:23;;;;;;;4.75;1.05;;;24.10;99.90;;;;;;4145929;28;20220;-77
2022/07/04 11:50:25;;;;;;;4.22;1.17;;;24.10;99.90;;;;;;4146029;28;20287;-78
2022/07/04 11:52:30;;;;;;;2.28;1.10;;;24.10;99.90;;;;;;4146232;28;20272;-77
2022/07/04 11:54:32;;;;;;;2.35;1.10;;;24.10;99.90;;;;;;4147428;28;20263;-78
2022/07/04 11:56:34;;;;;;;1.33;0.90;;;24.10;99.90;;;;;;4141062;28;20295;-77
2022/07/04 11:58:40;;;;;;;3.58;1.02;;;24.10;99.90;;;;;;4145496;28;20635;-78
2022/07/04 12:00:44;;;;;;;2.45;1.02;;;24.10;99.90;;;;;;4139956;28;20256;-78
2022/07/04 12:02:48;;;;;;;4.40;1.30;;;24.10;99.90;;;;;;4146084;28;20267;-77
2022/07/04 12:04:50;;;;;;;2.35;1.00;;;24.10;99.90;;;;;;4145981;28;20244;-77
2022/07/04 12:06:53;;;;;;;7.40;1.60;;;24.10;99.90;;;;;;4143025;28;20288;-77